sensor_id;sensor_type;location;lat;lon;timestamp;pressure;altitude;pressure_sealevel;temperature;humidity
77749;BME280;66938;52.084;5.228;2023-02-03T00:01:10;102575.0;;;10.01;74.77
77749;BME280;66938;52.084;5.228;2023-02-03T00:04:22;102586.99999999999;;;9.92;75.24
77749;BME280;66938;52.084;5.228;2023-02-03T00:05:59;102584.99999999999;;;9.97;75.22
77749;BME280;66938;52.084;5.228;2023-02-03T00:07:36;102592.0;;;10.06;74.98
77749;BME280;66938;52.084;5.228;2023-02-03T00:10:50;102598.0;;;10.09;74.66
77749;BME280;66938;52.084;5.228;2023-02-03T00:12:27;102594.0;;;10.07;74.66
77749;BME280;66938;52.084;5.228;2023-02-03T00:14:04;102594.0;;;10.11;74.83
77749;BME280;66938;52.084;5.228;2023-02-03T00:17:18;102597.0;;;10.09;74.73
77749;BME280;66938;52.084;5.228;2023-02-03T00:18:54;102601.0;;;9.97;75.08
77749;BME280;66938;52.084;5.228;2023-02-03T00:20:31;102605.0;;;10.02;74.97
77749;BME280;66938;52.084;5.228;2023-02-03T00:22:07;102602.0;;;10.1;74.64
77749;BME280;66938;52.084;5.228;2023-02-03T00:25:20;102603.0;;;10.14;74.53
77749;BME280;66938;52.084;5.228;2023-02-03T00:26:57;102607.0;;;10.11;74.37
77749;BME280;66938;52.084;5.228;2023-02-03T00:28:33;102600.0;;;9.98;74.78
77749;BME280;66938;52.084;5.228;2023-02-03T00:31:47;102614.00000000001;;;10.1;74.38
77749;BME280;66938;52.084;5.228;2023-02-03T00:33:24;102602.0;;;10.1;74.44
77749;BME280;66938;52.084;5.228;2023-02-03T00:35:01;102600.0;;;10.06;74.16
77749;BME280;66938;52.084;5.228;2023-02-03T00:38:13;102604.0;;;10.08;74.13
77749;BME280;66938;52.084;5.228;2023-02-03T00:39:49;102615.00000000001;;;10.1;73.94
77749;BME280;66938;52.084;5.228;2023-02-03T00:41:28;102609.99999999999;;;10.07;74.0
77749;BME280;66938;52.084;5.228;2023-02-03T00:43:04;102617.0;;;10.09;73.87
77749;BME280;66938;52.084;5.228;2023-02-03T00:46:17;102617.0;;;10.08;73.91
77749;BME280;66938;52.084;5.228;2023-02-03T00:47:53;102611.99999999999;;;10.01;73.97
77749;BME280;66938;52.084;5.228;2023-02-03T00:49:29;102606.0;;;9.94;74.31
77749;BME280;66938;52.084;5.228;2023-02-03T00:52:43;102608.99999999999;;;10.14;73.75
77749;BME280;66938;52.084;5.228;2023-02-03T00:54:19;102608.99999999999;;;10.21;73.39
77749;BME280;66938;52.084;5.228;2023-02-03T00:55:56;102613.00000000001;;;10.11;73.55
77749;BME280;66938;52.084;5.228;2023-02-03T00:59:08;102598.0;;;10.1;73.72
77749;BME280;66938;52.084;5.228;2023-02-03T01:00:44;102590.00000000001;;;10.1;73.62
77749;BME280;66938;52.084;5.228;2023-02-03T01:02:20;102592.0;;;10.16;73.36
77749;BME280;66938;52.084;5.228;2023-02-03T01:03:58;102586.99999999999;;;10.07;73.56
77749;BME280;66938;52.084;5.228;2023-02-03T01:07:12;102583.99999999999;;;10.08;73.49
77749;BME280;66938;52.084;5.228;2023-02-03T01:08:48;102588.00000000001;;;10.11;73.58
77749;BME280;66938;52.084;5.228;2023-02-03T01:10:25;102595.0;;;10.16;73.2
77749;BME280;66938;52.084;5.228;2023-02-03T01:13:38;102583.0;;;10.06;73.44
77749;BME280;66938;52.084;5.228;2023-02-03T01:15:15;102581.0;;;10.11;73.39
77749;BME280;66938;52.084;5.228;2023-02-03T01:16:52;102588.00000000001;;;10.1;73.11
77749;BME280;66938;52.084;5.228;2023-02-03T01:20:05;102593.0;;;10.06;73.45
77749;BME280;66938;52.084;5.228;2023-02-03T01:21:41;102593.0;;;10.06;73.69
77749;BME280;66938;52.084;5.228;2023-02-03T01:23:18;102592.0;;;10.15;73.12
77749;BME280;66938;52.084;5.228;2023-02-03T01:24:55;102596.0;;;10.06;73.19
77749;BME280;66938;52.084;5.228;2023-02-03T01:28:07;102588.00000000001;;;10.15;73.09
77749;BME280;66938;52.084;5.228;2023-02-03T01:29:43;102582.0;;;10.14;73.02
77749;BME280;66938;52.084;5.228;2023-02-03T01:31:21;102583.99999999999;;;10.13;72.91
77749;BME280;66938;52.084;5.228;2023-02-03T01:34:35;102569.0;;;10.0;73.33
77749;BME280;66938;52.084;5.228;2023-02-03T01:36:11;102566.00000000001;;;10.1;73.08
77749;BME280;66938;52.084;5.228;2023-02-03T01:37:48;102557.0;;;10.03;73.08
77749;BME280;66938;52.084;5.228;2023-02-03T01:41:03;102554.0;;;10.02;73.19
77749;BME280;66938;52.084;5.228;2023-02-03T01:42:39;102552.0;;;9.99;73.22
77749;BME280;66938;52.084;5.228;2023-02-03T01:44:46;102552.0;;;10.05;72.91
77749;BME280;66938;52.084;5.228;2023-02-03T01:46:29;102556.0;;;9.99;72.94
77749;BME280;66938;52.084;5.228;2023-02-03T01:48:08;102532.0;;;9.99;72.67
77749;BME280;66938;52.084;5.228;2023-02-03T01:51:28;102533.0;;;10.03;72.81
77749;BME280;66938;52.084;5.228;2023-02-03T01:53:08;102546.0;;;10.01;72.56
77749;BME280;66938;52.084;5.228;2023-02-03T01:54:47;102558.0;;;10.14;72.5
77749;BME280;66938;52.084;5.228;2023-02-03T01:56:29;102555.0;;;10.09;72.36
77749;BME280;66938;52.084;5.228;2023-02-03T01:59:52;102553.0;;;10.13;72.14
77749;BME280;66938;52.084;5.228;2023-02-03T02:01:33;102548.0;;;10.17;71.81
77749;BME280;66938;52.084;5.228;2023-02-03T02:03:12;102541.00000000001;;;10.14;71.78
77749;BME280;66938;52.084;5.228;2023-02-03T02:04:52;102527.0;;;10.14;71.84
77749;BME280;66938;52.084;5.228;2023-02-03T02:08:08;102533.0;;;10.14;71.92
77749;BME280;66938;52.084;5.228;2023-02-03T02:09:46;102541.00000000001;;;10.13;72.05
77749;BME280;66938;52.084;5.228;2023-02-03T02:11:23;102533.0;;;10.14;71.77
77749;BME280;66938;52.084;5.228;2023-02-03T02:13:01;102538.00000000001;;;10.13;71.74
77749;BME280;66938;52.084;5.228;2023-02-03T02:16:24;102536.99999999999;;;10.14;71.86
77749;BME280;66938;52.084;5.228;2023-02-03T02:18:15;102536.99999999999;;;10.15;71.86
77749;BME280;66938;52.084;5.228;2023-02-03T02:21:17;102531.0;;;10.23;71.58
77749;BME280;66938;52.084;5.228;2023-02-03T02:23:16;102527.0;;;10.21;71.48
77749;BME280;66938;52.084;5.228;2023-02-03T02:25:17;102533.99999999999;;;10.19;71.49
77749;BME280;66938;52.084;5.228;2023-02-03T02:28:10;102539.00000000001;;;10.24;71.44
77749;BME280;66938;52.084;5.228;2023-02-03T02:30:51;102555.0;;;10.28;71.45
77749;BME280;66938;52.084;5.228;2023-02-03T02:33:00;102547.0;;;10.24;71.31
77749;BME280;66938;52.084;5.228;2023-02-03T02:34:46;102546.0;;;10.23;71.45
77749;BME280;66938;52.084;5.228;2023-02-03T02:36:30;102551.0;;;10.23;71.41
77749;BME280;66938;52.084;5.228;2023-02-03T02:38:14;102547.0;;;10.25;71.33
77749;BME280;66938;52.084;5.228;2023-02-03T02:41:46;102547.0;;;10.35;71.05
77749;BME280;66938;52.084;5.228;2023-02-03T02:43:34;102551.0;;;10.26;70.94
77749;BME280;66938;52.084;5.228;2023-02-03T02:45:18;102549.0;;;10.33;71.05
77749;BME280;66938;52.084;5.228;2023-02-03T02:47:01;102534.99999999999;;;10.28;71.09
77749;BME280;66938;52.084;5.228;2023-02-03T02:48:44;102533.99999999999;;;10.33;70.86
77749;BME280;66938;52.084;5.228;2023-02-03T02:52:08;102528.0;;;10.4;70.69
77749;BME280;66938;52.084;5.228;2023-02-03T02:53:50;102533.99999999999;;;10.38;70.87
77749;BME280;66938;52.084;5.228;2023-02-03T02:55:36;102519.0;;;10.36;70.81
77749;BME280;66938;52.084;5.228;2023-02-03T02:57:16;102501.0;;;10.3;70.94
77749;BME280;66938;52.084;5.228;2023-02-03T03:00:35;102514.00000000001;;;10.3;71.25
77749;BME280;66938;52.084;5.228;2023-02-03T03:02:12;102520.0;;;10.36;70.88
77749;BME280;66938;52.084;5.228;2023-02-03T03:03:49;102513.00000000001;;;10.25;71.16
77749;BME280;66938;52.084;5.228;2023-02-03T03:05:26;102508.99999999999;;;10.36;70.99
77749;BME280;66938;52.084;5.228;2023-02-03T03:08:49;102505.0;;;10.3;70.83
77749;BME280;66938;52.084;5.228;2023-02-03T03:10:30;102497.0;;;10.31;71.0
77749;BME280;66938;52.084;5.228;2023-02-03T03:12:11;102491.00000000001;;;10.29;71.08
77749;BME280;66938;52.084;5.228;2023-02-03T03:13:52;102501.0;;;10.26;71.44
77749;BME280;66938;52.084;5.228;2023-02-03T03:17:13;102505.0;;;10.23;71.27
77749;BME280;66938;52.084;5.228;2023-02-03T03:18:55;102503.0;;;10.39;70.88
77749;BME280;66938;52.084;5.228;2023-02-03T03:20:34;102513.00000000001;;;10.37;70.86
77749;BME280;66938;52.084;5.228;2023-02-03T03:22:15;102503.0;;;10.42;70.8
77749;BME280;66938;52.084;5.228;2023-02-03T03:25:38;102515.00000000001;;;10.47;70.59
77749;BME280;66938;52.084;5.228;2023-02-03T03:27:19;102517.0;;;10.43;70.84
77749;BME280;66938;52.084;5.228;2023-02-03T03:29:05;102519.0;;;10.45;70.8
77749;BME280;66938;52.084;5.228;2023-02-03T03:30:45;102511.99999999999;;;10.45;70.91
77749;BME280;66938;52.084;5.228;2023-02-03T03:33:59;102506.0;;;10.51;70.74
77749;BME280;66938;52.084;5.228;2023-02-03T03:35:38;102502.0;;;10.42;70.86
77749;BME280;66938;52.084;5.228;2023-02-03T03:37:23;102516.00000000001;;;10.49;70.77
77749;BME280;66938;52.084;5.228;2023-02-03T03:39:10;102523.0;;;10.42;70.99
77749;BME280;66938;52.084;5.228;2023-02-03T03:40:55;102520.0;;;10.42;71.08
77749;BME280;66938;52.084;5.228;2023-02-03T03:44:21;102524.0;;;10.43;70.92
77749;BME280;66938;52.084;5.228;2023-02-03T03:46:06;102520.0;;;10.42;71.14
77749;BME280;66938;52.084;5.228;2023-02-03T03:47:48;102528.0;;;10.43;71.03
77749;BME280;66938;52.084;5.228;2023-02-03T03:49:29;102533.0;;;10.42;70.84
77749;BME280;66938;52.084;5.228;2023-02-03T03:52:53;102524.0;;;10.41;71.03
77749;BME280;66938;52.084;5.228;2023-02-03T03:54:32;102527.0;;;10.48;70.72
77749;BME280;66938;52.084;5.228;2023-02-03T03:56:14;102540.00000000001;;;10.51;70.77
77749;BME280;66938;52.084;5.228;2023-02-03T03:57:58;102530.0;;;10.52;70.55
77749;BME280;66938;52.084;5.228;2023-02-03T03:59:39;102542.0;;;10.52;70.56
77749;BME280;66938;52.084;5.228;2023-02-03T04:02:59;102544.0;;;10.55;70.58
77749;BME280;66938;52.084;5.228;2023-02-03T04:04:40;102536.99999999999;;;10.52;70.67
77749;BME280;66938;52.084;5.228;2023-02-03T04:06:18;102538.00000000001;;;10.57;70.44
77749;BME280;66938;52.084;5.228;2023-02-03T04:09:30;102538.00000000001;;;10.52;70.59
77749;BME280;66938;52.084;5.228;2023-02-03T04:11:07;102544.0;;;10.43;70.61
77749;BME280;66938;52.084;5.228;2023-02-03T04:12:43;102542.0;;;10.47;70.66
77749;BME280;66938;52.084;5.228;2023-02-03T04:14:20;102548.0;;;10.41;70.61
77749;BME280;66938;52.084;5.228;2023-02-03T04:17:35;102542.0;;;10.42;70.73
77749;BME280;66938;52.084;5.228;2023-02-03T04:19:11;102542.0;;;10.36;70.91
77749;BME280;66938;52.084;5.228;2023-02-03T04:20:47;102541.00000000001;;;10.33;71.05
77749;BME280;66938;52.084;5.228;2023-02-03T04:24:00;102540.00000000001;;;10.46;70.64
77749;BME280;66938;52.084;5.228;2023-02-03T04:25:36;102530.0;;;10.47;70.75
77749;BME280;66938;52.084;5.228;2023-02-03T04:27:12;102538.00000000001;;;10.41;70.66
77749;BME280;66938;52.084;5.228;2023-02-03T04:30:25;102529.0;;;10.44;70.61
77749;BME280;66938;52.084;5.228;2023-02-03T04:32:02;102528.0;;;10.46;70.73
77749;BME280;66938;52.084;5.228;2023-02-03T04:33:38;102525.0;;;10.53;70.48
77749;BME280;66938;52.084;5.228;2023-02-03T04:35:15;102530.0;;;10.46;70.59
77749;BME280;66938;52.084;5.228;2023-02-03T04:38:28;102527.0;;;10.44;70.58
77749;BME280;66938;52.084;5.228;2023-02-03T04:40:05;102526.0;;;10.49;70.66
77749;BME280;66938;52.084;5.228;2023-02-03T04:41:42;102533.0;;;10.47;70.56
77749;BME280;66938;52.084;5.228;2023-02-03T04:44:54;102536.99999999999;;;10.54;70.45
77749;BME280;66938;52.084;5.228;2023-02-03T04:46:30;102546.0;;;10.43;70.58
77749;BME280;66938;52.084;5.228;2023-02-03T04:48:06;102533.99999999999;;;10.47;70.66
77749;BME280;66938;52.084;5.228;2023-02-03T04:51:20;102533.99999999999;;;10.5;70.64
77749;BME280;66938;52.084;5.228;2023-02-03T04:52:58;102530.0;;;10.41;70.7
77749;BME280;66938;52.084;5.228;2023-02-03T04:54:34;102526.0;;;10.48;70.67
77749;BME280;66938;52.084;5.228;2023-02-03T04:56:11;102519.0;;;10.4;70.8
77749;BME280;66938;52.084;5.228;2023-02-03T04:59:31;102524.0;;;10.51;70.74
77749;BME280;66938;52.084;5.228;2023-02-03T05:01:08;102522.0;;;10.59;70.47
77749;BME280;66938;52.084;5.228;2023-02-03T05:02:45;102532.0;;;10.63;70.36
77749;BME280;66938;52.084;5.228;2023-02-03T05:05:57;102527.0;;;10.57;70.55
77749;BME280;66938;52.084;5.228;2023-02-03T05:07:33;102533.0;;;10.55;70.86
77749;BME280;66938;52.084;5.228;2023-02-03T05:09:09;102528.0;;;10.5;70.55
77749;BME280;66938;52.084;5.228;2023-02-03T05:10:46;102520.0;;;10.47;70.69
77749;BME280;66938;52.084;5.228;2023-02-03T05:13:58;102507.0;;;10.52;70.64
77749;BME280;66938;52.084;5.228;2023-02-03T05:15:34;102517.0;;;10.52;70.69
77749;BME280;66938;52.084;5.228;2023-02-03T05:17:10;102519.0;;;10.49;70.47
77749;BME280;66938;52.084;5.228;2023-02-03T05:20:22;102524.0;;;10.53;70.39
77749;BME280;66938;52.084;5.228;2023-02-03T05:21:59;102539.00000000001;;;10.64;70.08
77749;BME280;66938;52.084;5.228;2023-02-03T05:23:35;102534.99999999999;;;10.72;69.95
77749;BME280;66938;52.084;5.228;2023-02-03T05:26:49;102543.0;;;10.71;69.86
77749;BME280;66938;52.084;5.228;2023-02-03T05:28:25;102549.0;;;10.79;69.66
77749;BME280;66938;52.084;5.228;2023-02-03T05:30:02;102550.0;;;10.77;69.59
77749;BME280;66938;52.084;5.228;2023-02-03T05:31:39;102541.00000000001;;;10.72;69.41
77749;BME280;66938;52.084;5.228;2023-02-03T05:34:52;102542.0;;;10.65;69.67
77749;BME280;66938;52.084;5.228;2023-02-03T05:36:28;102546.0;;;10.81;69.34
77749;BME280;66938;52.084;5.228;2023-02-03T05:38:04;102543.0;;;10.75;69.52
77749;BME280;66938;52.084;5.228;2023-02-03T05:42:22;102532.0;;;10.8;69.44
77749;BME280;66938;52.084;5.228;2023-02-03T05:43:59;102533.0;;;10.67;69.48
77749;BME280;66938;52.084;5.228;2023-02-03T05:45:35;102533.0;;;10.53;69.73
77749;BME280;66938;52.084;5.228;2023-02-03T05:47:12;102528.0;;;10.66;69.58
77749;BME280;66938;52.084;5.228;2023-02-03T05:48:49;102533.99999999999;;;10.68;69.49
77749;BME280;66938;52.084;5.228;2023-02-03T05:52:03;102533.99999999999;;;10.56;69.63
77749;BME280;66938;52.084;5.228;2023-02-03T05:53:39;102524.0;;;10.62;69.61
77749;BME280;66938;52.084;5.228;2023-02-03T05:55:16;102533.0;;;10.69;69.39
77749;BME280;66938;52.084;5.228;2023-02-03T05:56:52;102522.0;;;10.62;69.75
77749;BME280;66938;52.084;5.228;2023-02-03T06:00:07;102543.0;;;10.77;69.41
77749;BME280;66938;52.084;5.228;2023-02-03T06:01:44;102532.0;;;10.69;69.41
77749;BME280;66938;52.084;5.228;2023-02-03T06:03:20;102543.0;;;10.78;69.45
77749;BME280;66938;52.084;5.228;2023-02-03T06:06:33;102533.99999999999;;;10.7;69.45
77749;BME280;66938;52.084;5.228;2023-02-03T06:08:09;102534.99999999999;;;10.61;69.69
77749;BME280;66938;52.084;5.228;2023-02-03T06:09:46;102542.0;;;10.72;69.83
77749;BME280;66938;52.084;5.228;2023-02-03T06:11:23;102539.00000000001;;;10.7;69.58
77749;BME280;66938;52.084;5.228;2023-02-03T06:14:44;102544.0;;;10.83;69.34
77749;BME280;66938;52.084;5.228;2023-02-03T06:16:21;102533.99999999999;;;10.74;69.45
77749;BME280;66938;52.084;5.228;2023-02-03T06:17:58;102533.0;;;10.75;69.42
77749;BME280;66938;52.084;5.228;2023-02-03T06:21:10;102533.0;;;10.73;69.36
77749;BME280;66938;52.084;5.228;2023-02-03T06:22:46;102536.99999999999;;;10.74;69.58
77749;BME280;66938;52.084;5.228;2023-02-03T06:24:22;102542.0;;;10.72;69.78
77749;BME280;66938;52.084;5.228;2023-02-03T06:27:36;102541.00000000001;;;10.72;69.5
77749;BME280;66938;52.084;5.228;2023-02-03T06:29:13;102543.0;;;10.65;69.77
77749;BME280;66938;52.084;5.228;2023-02-03T06:30:49;102544.0;;;10.69;69.91
77749;BME280;66938;52.084;5.228;2023-02-03T06:32:26;102543.0;;;10.63;70.03
77749;BME280;66938;52.084;5.228;2023-02-03T06:35:39;102542.0;;;10.71;69.89
77749;BME280;66938;52.084;5.228;2023-02-03T06:37:16;102544.0;;;10.78;69.77
77749;BME280;66938;52.084;5.228;2023-02-03T06:38:53;102551.0;;;10.72;69.84
77749;BME280;66938;52.084;5.228;2023-02-03T06:42:06;102543.0;;;10.66;69.86
77749;BME280;66938;52.084;5.228;2023-02-03T06:43:43;102542.0;;;10.76;69.72
77749;BME280;66938;52.084;5.228;2023-02-03T06:45:19;102534.99999999999;;;10.64;70.06
77749;BME280;66938;52.084;5.228;2023-02-03T06:48:32;102534.99999999999;;;10.82;69.73
77749;BME280;66938;52.084;5.228;2023-02-03T06:50:09;102541.00000000001;;;10.76;69.97
77749;BME280;66938;52.084;5.228;2023-02-03T06:51:47;102543.0;;;10.64;70.11
77749;BME280;66938;52.084;5.228;2023-02-03T06:53:23;102554.0;;;10.55;70.19
77749;BME280;66938;52.084;5.228;2023-02-03T06:56:36;102559.99999999999;;;10.64;70.2
77749;BME280;66938;52.084;5.228;2023-02-03T06:58:12;102553.0;;;10.8;69.64
77749;BME280;66938;52.084;5.228;2023-02-03T06:59:49;102563.00000000001;;;10.86;69.58
77749;BME280;66938;52.084;5.228;2023-02-03T07:03:02;102568.0;;;10.69;69.97
77749;BME280;66938;52.084;5.228;2023-02-03T07:04:38;102561.99999999999;;;10.77;70.16
77749;BME280;66938;52.084;5.228;2023-02-03T07:06:14;102578.0;;;10.63;70.02
77749;BME280;66938;52.084;5.228;2023-02-03T07:09:27;102582.0;;;10.63;70.27
77749;BME280;66938;52.084;5.228;2023-02-03T07:11:04;102575.0;;;10.76;69.95
77749;BME280;66938;52.084;5.228;2023-02-03T07:12:41;102570.0;;;10.73;69.8
77749;BME280;66938;52.084;5.228;2023-02-03T07:14:17;102581.0;;;10.77;69.91
77749;BME280;66938;52.084;5.228;2023-02-03T07:17:30;102579.0;;;10.77;69.83
77749;BME280;66938;52.084;5.228;2023-02-03T07:19:06;102593.0;;;10.81;69.77
77749;BME280;66938;52.084;5.228;2023-02-03T07:20:43;102588.00000000001;;;10.77;69.89
77749;BME280;66938;52.084;5.228;2023-02-03T07:23:55;102583.99999999999;;;10.73;70.03
77749;BME280;66938;52.084;5.228;2023-02-03T07:25:31;102590.00000000001;;;10.83;69.8
77749;BME280;66938;52.084;5.228;2023-02-03T07:27:07;102590.00000000001;;;10.57;70.52
77749;BME280;66938;52.084;5.228;2023-02-03T07:30:20;102582.0;;;10.72;70.27
77749;BME280;66938;52.084;5.228;2023-02-03T07:31:56;102584.99999999999;;;10.74;70.27
77749;BME280;66938;52.084;5.228;2023-02-03T07:33:33;102586.99999999999;;;10.83;70.16
77749;BME280;66938;52.084;5.228;2023-02-03T07:35:09;102582.0;;;10.9;70.0
77749;BME280;66938;52.084;5.228;2023-02-03T07:38:23;102591.00000000001;;;10.85;70.09
77749;BME280;66938;52.084;5.228;2023-02-03T07:39:59;102584.99999999999;;;10.66;70.41
77749;BME280;66938;52.084;5.228;2023-02-03T07:41:35;102590.00000000001;;;10.76;70.33
77749;BME280;66938;52.084;5.228;2023-02-03T07:44:48;102596.0;;;10.85;70.16
77749;BME280;66938;52.084;5.228;2023-02-03T07:46:24;102594.0;;;10.82;70.47
77749;BME280;66938;52.084;5.228;2023-02-03T07:48:00;102584.99999999999;;;10.8;70.49
77749;BME280;66938;52.084;5.228;2023-02-03T07:51:12;102592.0;;;10.77;70.75
77749;BME280;66938;52.084;5.228;2023-02-03T07:52:49;102592.0;;;10.7;71.14
77749;BME280;66938;52.084;5.228;2023-02-03T07:54:26;102584.99999999999;;;10.59;71.16
77749;BME280;66938;52.084;5.228;2023-02-03T07:56:03;102593.0;;;10.72;70.86
77749;BME280;66938;52.084;5.228;2023-02-03T07:59:19;102589.00000000001;;;10.83;70.52
77749;BME280;66938;52.084;5.228;2023-02-03T08:00:55;102595.0;;;10.74;70.84
77749;BME280;66938;52.084;5.228;2023-02-03T08:02:32;102601.0;;;10.81;70.77
77749;BME280;66938;52.084;5.228;2023-02-03T08:05:48;102584.99999999999;;;10.72;70.95
77749;BME280;66938;52.084;5.228;2023-02-03T08:07:25;102588.00000000001;;;10.62;71.24
77749;BME280;66938;52.084;5.228;2023-02-03T08:09:01;102586.99999999999;;;10.73;71.16
77749;BME280;66938;52.084;5.228;2023-02-03T08:10:37;102591.00000000001;;;10.68;71.3
77749;BME280;66938;52.084;5.228;2023-02-03T08:13:50;102606.0;;;10.75;71.24
77749;BME280;66938;52.084;5.228;2023-02-03T08:15:26;102609.99999999999;;;10.79;71.05
77749;BME280;66938;52.084;5.228;2023-02-03T08:17:02;102614.00000000001;;;10.89;71.08
77749;BME280;66938;52.084;5.228;2023-02-03T08:20:16;102624.0;;;10.81;70.98
77749;BME280;66938;52.084;5.228;2023-02-03T08:21:52;102627.0;;;10.66;71.27
77749;BME280;66938;52.084;5.228;2023-02-03T08:23:28;102624.0;;;10.74;71.27
77749;BME280;66938;52.084;5.228;2023-02-03T08:26:42;102642.0;;;10.82;71.27
77749;BME280;66938;52.084;5.228;2023-02-03T08:28:18;102629.0;;;10.82;71.13
77749;BME280;66938;52.084;5.228;2023-02-03T08:29:55;102623.0;;;10.86;71.08
77749;BME280;66938;52.084;5.228;2023-02-03T08:31:31;102620.0;;;10.9;71.08
77749;BME280;66938;52.084;5.228;2023-02-03T08:34:44;102623.0;;;10.88;70.99
77749;BME280;66938;52.084;5.228;2023-02-03T08:36:22;102630.0;;;10.84;70.98
77749;BME280;66938;52.084;5.228;2023-02-03T08:37:59;102639.00000000001;;;10.91;70.72
77749;BME280;66938;52.084;5.228;2023-02-03T08:41:13;102636.99999999999;;;10.91;70.77
77749;BME280;66938;52.084;5.228;2023-02-03T08:42:51;102630.0;;;10.85;71.06
77749;BME280;66938;52.084;5.228;2023-02-03T08:44:29;102624.0;;;10.78;71.05
77749;BME280;66938;52.084;5.228;2023-02-03T08:47:46;102633.0;;;10.91;70.86
77749;BME280;66938;52.084;5.228;2023-02-03T08:49:23;102641.00000000001;;;10.88;71.05
77749;BME280;66938;52.084;5.228;2023-02-03T08:51:01;102644.0;;;10.88;71.22
77749;BME280;66938;52.084;5.228;2023-02-03T08:52:37;102646.0;;;10.97;71.36
77749;BME280;66938;52.084;5.228;2023-02-03T08:55:51;102651.0;;;11.05;70.94
77749;BME280;66938;52.084;5.228;2023-02-03T08:57:31;102644.0;;;10.98;70.84
77749;BME280;66938;52.084;5.228;2023-02-03T08:59:08;102634.99999999999;;;11.09;70.62
77749;BME280;66938;52.084;5.228;2023-02-03T09:02:21;102638.00000000001;;;11.0;70.81
77749;BME280;66938;52.084;5.228;2023-02-03T09:04:01;102652.0;;;11.05;71.05
77749;BME280;66938;52.084;5.228;2023-02-03T09:05:37;102652.0;;;11.08;70.62
77749;BME280;66938;52.084;5.228;2023-02-03T09:07:14;102652.0;;;11.11;70.67
77749;BME280;66938;52.084;5.228;2023-02-03T09:10:27;102656.0;;;11.2;70.72
77749;BME280;66938;52.084;5.228;2023-02-03T09:12:05;102664.00000000001;;;11.19;70.59
77749;BME280;66938;52.084;5.228;2023-02-03T09:13:45;102658.99999999999;;;11.13;70.77
77749;BME280;66938;52.084;5.228;2023-02-03T09:16:59;102655.0;;;11.09;70.75
77749;BME280;66938;52.084;5.228;2023-02-03T09:18:35;102667.0;;;11.06;71.08
77749;BME280;66938;52.084;5.228;2023-02-03T09:20:14;102672.0;;;11.02;71.3
77749;BME280;66938;52.084;5.228;2023-02-03T09:21:50;102670.0;;;11.16;70.73
77749;BME280;66938;52.084;5.228;2023-02-03T09:25:04;102669.0;;;11.16;70.69
77749;BME280;66938;52.084;5.228;2023-02-03T09:26:40;102659.99999999999;;;11.16;70.84
77749;BME280;66938;52.084;5.228;2023-02-03T09:28:16;102674.0;;;11.16;70.89
77749;BME280;66938;52.084;5.228;2023-02-03T09:31:29;102670.0;;;11.27;70.95
77749;BME280;66938;52.084;5.228;2023-02-03T09:33:05;102673.0;;;11.29;70.66
77749;BME280;66938;52.084;5.228;2023-02-03T09:34:41;102652.0;;;11.23;70.44
77749;BME280;66938;52.084;5.228;2023-02-03T09:37:53;102651.0;;;11.27;70.66
77749;BME280;66938;52.084;5.228;2023-02-03T09:39:30;102674.0;;;11.34;70.41
77749;BME280;66938;52.084;5.228;2023-02-03T09:41:14;102683.0;;;11.37;70.31
77749;BME280;66938;52.084;5.228;2023-02-03T09:43:12;102667.0;;;11.44;70.02
77749;BME280;66938;52.084;5.228;2023-02-03T09:45:13;102669.0;;;11.34;70.12
77749;BME280;66938;52.084;5.228;2023-02-03T09:46:55;102679.0;;;11.35;70.11
77749;BME280;66938;52.084;5.228;2023-02-03T09:50:19;102688.00000000001;;;11.35;70.02
77749;BME280;66938;52.084;5.228;2023-02-03T09:52:02;102692.0;;;11.43;70.2
77749;BME280;66938;52.084;5.228;2023-02-03T09:53:45;102695.0;;;11.41;69.88
77749;BME280;66938;52.084;5.228;2023-02-03T09:55:29;102691.00000000001;;;11.36;70.05
77749;BME280;66938;52.084;5.228;2023-02-03T09:58:53;102689.00000000001;;;11.38;69.94
77749;BME280;66938;52.084;5.228;2023-02-03T10:00:31;102688.00000000001;;;11.41;69.91
77749;BME280;66938;52.084;5.228;2023-02-03T10:02:29;102700.0;;;11.38;70.08
77749;BME280;66938;52.084;5.228;2023-02-03T10:04:22;102695.0;;;11.4;70.02
77749;BME280;66938;52.084;5.228;2023-02-03T10:06:09;102699.0;;;11.34;70.12
77749;BME280;66938;52.084;5.228;2023-02-03T10:07:58;102709.99999999999;;;11.38;70.06
77749;BME280;66938;52.084;5.228;2023-02-03T10:11:45;102703.0;;;11.43;69.66
77749;BME280;66938;52.084;5.228;2023-02-03T10:13:52;102709.99999999999;;;11.41;70.12
77749;BME280;66938;52.084;5.228;2023-02-03T10:15:51;102721.0;;;11.38;69.99
77749;BME280;66938;52.084;5.228;2023-02-03T10:17:47;102719.0;;;11.55;69.72
77749;BME280;66938;52.084;5.228;2023-02-03T10:19:37;102717.0;;;11.52;69.47
77749;BME280;66938;52.084;5.228;2023-02-03T10:21:30;102707.0;;;11.46;69.59
77749;BME280;66938;52.084;5.228;2023-02-03T10:23:13;102718.0;;;11.54;69.83
77749;BME280;66938;52.084;5.228;2023-02-03T10:24:56;102719.0;;;11.57;69.58
77749;BME280;66938;52.084;5.228;2023-02-03T10:26:36;102731.0;;;11.48;69.56
77749;BME280;66938;52.084;5.228;2023-02-03T10:29:59;102723.0;;;11.47;70.08
77749;BME280;66938;52.084;5.228;2023-02-03T10:31:40;102727.0;;;11.52;69.81
77749;BME280;66938;52.084;5.228;2023-02-03T10:33:18;102722.0;;;11.56;69.62
77749;BME280;66938;52.084;5.228;2023-02-03T10:36:39;102724.0;;;11.47;69.61
77749;BME280;66938;52.084;5.228;2023-02-03T10:38:37;102727.0;;;11.43;69.83
77749;BME280;66938;52.084;5.228;2023-02-03T10:40:22;102732.0;;;11.47;69.83
77749;BME280;66938;52.084;5.228;2023-02-03T10:42:03;102733.0;;;11.49;69.99